KFFT/FFT METAR and TAF weather

Enter ICAO airport designator
Station Type Date Time Source
KFFT METAR 2022/06/26 07:53 UTC NOAA

KFFT 260753Z AUTO 17005KT 10SM CLR 24/21 A3003 RMK AO2 SLP159 T02440211


Station Type Date Time Source
KFFT Decoded METAR 2022/06/26 07:53 UTC NOAA

FRANKFORT CAPITAL CITY AIRPORT , KY, United States (KFFT) 38-11N 84-54W 236M
Jun 26, 2022 - 03:53 AM EDT / 2022.06.26 0753 UTC
Wind: from the S (170 degrees) at 6 MPH (5 KT):0
Visibility: 10 mile(s):0
Sky conditions: clear
Temperature: 75.9 F (24.4 C)
Dew Point: 70.0 F (21.1 C)
Relative Humidity: 81%
Pressure (altimeter): 30.03 in. Hg (1016 hPa)
ob: KFFT 260753Z AUTO 17005KT 10SM CLR 24/21 A3003 RMK AO2 SLP159 T02440211
cycle: 8

Station Type Date Time Source
KFFT TAF UTC NOAA

Error!

Example: see airport list